createdAt,value
2018-11-29T00:01:16.333Z,17.90
2018-11-29T00:06:21.049Z,18.60
2018-11-29T00:11:35.773Z,18.43
2018-11-29T00:16:40.777Z,18.77
2018-11-29T00:21:50.113Z,18.53
2018-11-29T00:26:57.274Z,17.57
2018-11-29T00:32:06.995Z,18.40
2018-11-29T00:37:12.001Z,17.53
2018-11-29T00:42:16.693Z,18.30
2018-11-29T00:47:25.203Z,16.90
2018-11-29T00:52:30.437Z,15.87
2018-11-29T01:03:07.600Z,16.20
2018-11-29T01:08:13.153Z,15.90
2018-11-29T01:13:18.720Z,15.30
2018-11-29T01:23:55.013Z,14.47
2018-11-29T01:29:00.201Z,14.53
2018-11-29T01:34:05.044Z,14.00
2018-11-29T01:39:10.509Z,13.30
2018-11-29T01:44:15.493Z,13.30
2018-11-29T01:49:21.808Z,13.53
2018-11-29T01:54:26.231Z,13.70
2018-11-29T01:59:31.161Z,13.83
2018-11-29T02:04:35.672Z,12.93
2018-11-29T02:09:40.404Z,12.33
2018-11-29T02:14:45.224Z,12.47
2018-11-29T02:19:49.899Z,11.90
2018-11-29T02:24:54.474Z,12.07
2018-11-29T02:30:21.529Z,12.70
2018-11-29T02:35:28.319Z,12.47
2018-11-29T02:40:46.409Z,12.07
2018-11-29T02:45:51.239Z,11.63
2018-11-29T02:50:56.012Z,11.43
2018-11-29T02:56:00.633Z,11.00
2018-11-29T03:01:27.717Z,12.57
2018-11-29T03:06:32.954Z,11.50
2018-11-29T03:11:37.289Z,10.57
2018-11-29T03:16:42.466Z,10.97
2018-11-29T03:21:47.698Z,10.07
2018-11-29T03:26:51.907Z,10.47
2018-11-29T03:31:56.131Z,11.27
2018-11-29T03:37:01.291Z,11.13
2018-11-29T03:47:38.690Z,11.00
2018-11-29T03:52:44.627Z,11.10
2018-11-29T03:57:54.409Z,11.20
2018-11-29T04:02:59.549Z,11.50
2018-11-29T04:08:05.169Z,10.20
2018-11-29T04:13:09.891Z,12.03
2018-11-29T04:18:19.689Z,11.43
2018-11-29T04:23:24.427Z,10.87
2018-11-29T04:28:51.392Z,11.27
2018-11-29T04:33:56.391Z,10.43
2018-11-29T04:39:08.219Z,10.97
2018-11-29T04:44:12.937Z,10.80
2018-11-29T04:49:17.577Z,10.60
2018-11-29T04:54:22.156Z,10.57
2018-11-29T04:59:27.201Z,10.80
2018-11-29T05:04:31.698Z,11.13
2018-11-29T05:09:36.257Z,10.77
2018-11-29T05:14:40.704Z,10.43
2018-11-29T05:19:45.555Z,10.60
2018-11-29T05:24:50.164Z,10.23
2018-11-29T05:29:55.078Z,10.13
2018-11-29T05:35:01.137Z,10.70
2018-11-29T05:40:09.639Z,10.70
2018-11-29T05:45:15.099Z,10.30
2018-11-29T05:50:25.863Z,9.13
2018-11-29T05:55:31.649Z,9.53
2018-11-29T06:00:36.712Z,9.40
2018-11-29T06:05:43.787Z,9.27
2018-11-29T06:10:48.925Z,9.73
2018-11-29T06:15:53.855Z,9.97
2018-11-29T06:21:00.426Z,9.00
2018-11-29T06:26:05.247Z,9.07
2018-11-29T06:31:10.269Z,9.90
2018-11-29T06:36:14.753Z,9.60
2018-11-29T06:41:19.616Z,9.30
2018-11-29T06:46:25.753Z,9.70
2018-11-29T06:51:29.737Z,8.67
2018-11-29T06:56:34.423Z,10.27
2018-11-29T07:01:40.811Z,10.00
2018-11-29T07:06:46.197Z,10.70
2018-11-29T07:11:50.947Z,9.60
2018-11-29T07:17:00.013Z,9.90
2018-11-29T07:22:04.459Z,8.73
2018-11-29T07:27:12.647Z,9.50
2018-11-29T07:32:18.158Z,9.00
2018-11-29T07:37:22.672Z,9.60
2018-11-29T07:42:27.085Z,11.03
2018-11-29T07:47:31.494Z,8.50
2018-11-29T07:52:36.351Z,9.67
2018-11-29T07:57:40.795Z,9.67
2018-11-29T08:02:45.323Z,9.70
2018-11-29T08:07:55.342Z,10.23
2018-11-29T08:13:00.209Z,10.27
2018-11-29T08:18:05.515Z,10.60
2018-11-29T08:23:11.380Z,9.97
2018-11-29T08:28:25.302Z,10.77
2018-11-29T08:33:30.177Z,9.50
2018-11-29T08:38:39.888Z,9.93
2018-11-29T08:43:44.315Z,10.73
2018-11-29T08:48:49.701Z,10.63
2018-11-29T08:53:55.756Z,10.33
2018-11-29T08:59:00.541Z,9.90
2018-11-29T09:04:05.530Z,9.87
2018-11-29T09:09:09.833Z,10.00
2018-11-29T09:14:15.058Z,9.17
2018-11-29T09:19:19.559Z,9.47
2018-11-29T09:24:24.258Z,9.60
2018-11-29T09:29:29.603Z,9.80
2018-11-29T09:34:34.905Z,10.10
2018-11-29T09:39:40.296Z,9.67
2018-11-29T09:44:45.947Z,9.70
2018-11-29T09:49:50.541Z,9.67
2018-11-29T09:54:55.390Z,9.50
2018-11-29T10:00:00.259Z,9.17
2018-11-29T10:05:05.413Z,9.40
2018-11-29T10:10:12.476Z,8.57
2018-11-29T10:15:17.862Z,8.63
2018-11-29T10:20:22.584Z,8.40
2018-11-29T10:25:27.166Z,8.70
2018-11-29T10:30:36.237Z,8.77
2018-11-29T10:35:40.915Z,8.30
2018-11-29T10:40:46.074Z,7.73
2018-11-29T10:45:50.589Z,7.90
2018-11-29T10:50:54.832Z,7.90
2018-11-29T10:55:59.424Z,8.23
2018-11-29T11:01:09.581Z,8.00
2018-11-29T11:06:14.207Z,7.03
2018-11-29T11:11:21.177Z,7.80
2018-11-29T11:16:26.396Z,7.83
2018-11-29T11:21:36.189Z,7.90
2018-11-29T11:26:40.738Z,7.70
2018-11-29T11:31:46.618Z,7.63
2018-11-29T11:36:51.037Z,7.00
2018-11-29T11:41:55.981Z,7.70
2018-11-29T11:47:00.532Z,7.83
2018-11-29T11:52:05.442Z,7.50
2018-11-29T11:57:09.844Z,7.67
2018-11-29T12:02:14.258Z,8.50
2018-11-29T12:07:19.663Z,8.97
2018-11-29T12:12:25.921Z,8.33
2018-11-29T12:17:31.194Z,8.10
2018-11-29T12:22:35.886Z,9.20
2018-11-29T12:27:40.374Z,9.83
2018-11-29T12:32:47.590Z,9.47
2018-11-29T12:37:53.323Z,9.30
2018-11-29T12:42:57.268Z,9.57
2018-11-29T12:48:01.627Z,9.87
2018-11-29T12:53:06.566Z,10.03
2018-11-29T12:58:10.987Z,10.40
2018-11-29T13:03:15.616Z,10.90
2018-11-29T13:08:23.007Z,9.30
2018-11-29T13:13:27.913Z,10.03
2018-11-29T13:18:33.188Z,10.83
2018-11-29T13:23:37.884Z,9.67
2018-11-29T13:28:42.581Z,12.30
2018-11-29T13:33:47.564Z,11.73
2018-11-29T13:38:52.795Z,12.13
2018-11-29T13:43:57.937Z,11.63
2018-11-29T13:49:03.480Z,11.70
2018-11-29T13:54:07.864Z,12.23
2018-11-29T13:59:18.072Z,12.17
2018-11-29T14:04:22.633Z,11.47
2018-11-29T14:09:26.956Z,11.83
2018-11-29T14:14:32.414Z,12.37
2018-11-29T14:19:36.680Z,12.20
2018-11-29T14:24:40.981Z,12.03
2018-11-29T14:29:45.912Z,11.83
2018-11-29T14:34:53.973Z,11.83
2018-11-29T14:39:58.725Z,13.27
2018-11-29T14:45:03.152Z,12.80
2018-11-29T14:50:16.283Z,13.13
2018-11-29T14:55:21.732Z,12.53
2018-11-29T15:00:30.922Z,13.00
2018-11-29T15:05:35.408Z,14.20
2018-11-29T15:10:39.824Z,12.73
2018-11-29T15:15:44.817Z,12.73
2018-11-29T15:20:50.096Z,12.80
2018-11-29T15:25:55.812Z,12.87
2018-11-29T15:31:00.495Z,12.80
2018-11-29T15:36:05.099Z,11.97
2018-11-29T15:41:09.595Z,12.33
2018-11-29T15:46:14.087Z,11.80
2018-11-29T15:51:23.467Z,13.53
2018-11-29T15:56:28.104Z,12.40
2018-11-29T16:01:32.764Z,11.50
2018-11-29T16:06:41.212Z,14.10
2018-11-29T16:11:45.871Z,13.07
2018-11-29T16:16:50.309Z,12.80
2018-11-29T16:21:55.042Z,11.90
2018-11-29T16:27:00.445Z,12.87
2018-11-29T16:32:14.201Z,12.30
2018-11-29T16:37:19.134Z,12.60
2018-11-29T16:42:28.896Z,13.83
2018-11-29T16:47:33.453Z,13.87
2018-11-29T16:52:38.194Z,13.27
2018-11-29T16:57:48.559Z,14.20
2018-11-29T17:02:53.220Z,14.90
2018-11-29T17:07:58.535Z,14.57
2018-11-29T17:13:05.247Z,15.00
2018-11-29T17:18:09.795Z,15.30
2018-11-29T17:23:15.558Z,15.40
2018-11-29T17:28:21.422Z,16.17
2018-11-29T17:33:27.198Z,15.80
2018-11-29T17:38:45.836Z,16.63
2018-11-29T17:43:50.606Z,15.70
2018-11-29T17:49:01.572Z,16.93
2018-11-29T17:54:06.944Z,16.33
2018-11-29T17:59:12.610Z,16.33
2018-11-29T18:04:17.589Z,17.37
2018-11-29T18:09:27.531Z,17.47
2018-11-29T18:14:32.194Z,16.57
2018-11-29T18:19:47.478Z,17.53
2018-11-29T18:24:52.196Z,17.40
2018-11-29T18:29:56.678Z,17.43
2018-11-29T18:35:04.405Z,16.63
2018-11-29T18:40:14.559Z,16.97
2018-11-29T18:45:29.417Z,17.63
2018-11-29T18:50:40.930Z,16.57
2018-11-29T18:55:46.937Z,17.17
2018-11-29T19:01:05.472Z,16.27
2018-11-29T19:06:10.311Z,17.70
2018-11-29T19:11:14.927Z,18.37
2018-11-29T19:16:20.411Z,18.07
2018-11-29T19:21:25.899Z,16.97
2018-11-29T19:26:31.425Z,17.53
2018-11-29T19:31:38.024Z,15.83
2018-11-29T19:36:43.522Z,17.03
2018-11-29T19:41:50.682Z,17.60
2018-11-29T19:52:09.429Z,15.97
2018-11-29T19:57:13.680Z,17.73
2018-11-29T20:02:18.052Z,16.50
2018-11-29T20:07:22.897Z,16.03
2018-11-29T20:12:28.000Z,17.37
2018-11-29T20:17:32.538Z,16.07
2018-11-29T20:22:37.323Z,16.70
2018-11-29T20:27:43.944Z,15.23
2018-11-29T20:32:49.410Z,16.27
2018-11-29T20:37:55.331Z,15.23
2018-11-29T20:43:00.949Z,16.87
2018-11-29T20:48:17.157Z,16.60
2018-11-29T20:53:24.670Z,16.73
2018-11-29T20:58:30.539Z,15.80
2018-11-29T21:08:55.939Z,16.57
2018-11-29T21:14:00.946Z,16.57
2018-11-29T21:19:05.812Z,16.13
2018-11-29T21:24:10.288Z,16.83
2018-11-29T21:29:15.301Z,14.27
2018-11-29T21:34:20.043Z,14.53
2018-11-29T21:39:24.691Z,15.17
2018-11-29T21:44:29.235Z,15.53
2018-11-29T21:49:34.255Z,15.97
2018-11-29T21:54:39.514Z,15.53
2018-11-29T21:59:44.482Z,15.33
2018-11-29T22:04:50.243Z,15.70
2018-11-29T22:09:55.366Z,16.23
2018-11-29T22:15:01.024Z,16.47
2018-11-29T22:20:05.976Z,15.47
2018-11-29T22:25:11.747Z,16.53
2018-11-29T22:30:17.388Z,16.77
2018-11-29T22:35:24.340Z,16.63
2018-11-29T22:40:40.259Z,14.70
2018-11-29T22:45:46.039Z,16.87
2018-11-29T22:50:56.591Z,15.60
2018-11-29T22:56:03.038Z,14.63
2018-11-29T23:01:13.049Z,14.80
2018-11-29T23:06:17.461Z,14.87
2018-11-29T23:11:26.896Z,16.40
2018-11-29T23:16:32.333Z,15.40
2018-11-29T23:21:37.255Z,14.33
2018-11-29T23:26:41.808Z,14.97
2018-11-29T23:31:46.242Z,14.27
2018-11-29T23:36:50.994Z,14.83
2018-11-29T23:41:56.274Z,14.70
2018-11-29T23:47:00.837Z,14.90
2018-11-29T23:52:10.538Z,14.90
2018-11-29T23:57:15.225Z,16.47
